sensor_id;sensor_type;location;lat;lon;timestamp;pressure;altitude;pressure_sealevel;temperature;humidity
21431;BME280;10876;49.038;10.608;2023-05-20T00:01:06;99110.19;;;12.57;100.00
21431;BME280;10876;49.038;10.608;2023-05-20T00:03:33;99098.56;;;12.60;100.00
21431;BME280;10876;49.038;10.608;2023-05-20T00:05:59;99097.25;;;12.58;100.00
21431;BME280;10876;49.038;10.608;2023-05-20T00:08:26;99096.44;;;12.57;100.00
21431;BME280;10876;49.038;10.608;2023-05-20T00:10:53;99096.44;;;12.57;100.00
21431;BME280;10876;49.038;10.608;2023-05-20T00:13:21;99098.88;;;12.59;100.00
21431;BME280;10876;49.038;10.608;2023-05-20T00:52:36;99038.75;;;12.57;100.00
21431;BME280;10876;49.038;10.608;2023-05-20T00:55:03;99031.13;;;12.54;100.00
21431;BME280;10876;49.038;10.608;2023-05-20T00:57:30;99039.38;;;12.54;100.00
21431;BME280;10876;49.038;10.608;2023-05-20T00:59:57;99041.28;;;12.45;100.00
21431;BME280;10876;49.038;10.608;2023-05-20T01:02:24;99044.78;;;12.37;100.00
21431;BME280;10876;49.038;10.608;2023-05-20T01:04:51;99046.84;;;12.31;100.00
21431;BME280;10876;49.038;10.608;2023-05-20T01:07:19;99044.41;;;12.30;100.00
21431;BME280;10876;49.038;10.608;2023-05-20T01:09:47;99069.28;;;12.25;100.00
21431;BME280;10876;49.038;10.608;2023-05-20T01:12:17;99072.16;;;12.20;100.00
21431;BME280;10876;49.038;10.608;2023-05-20T01:14:47;99064.03;;;12.14;100.00
21431;BME280;10876;49.038;10.608;2023-05-20T01:17:15;99065.28;;;12.08;100.00
21431;BME280;10876;49.038;10.608;2023-05-20T01:19:46;99058.78;;;12.04;100.00
21431;BME280;10876;49.038;10.608;2023-05-20T01:22:14;99050.34;;;12.01;100.00
21431;BME280;10876;49.038;10.608;2023-05-20T01:24:44;99046.63;;;11.97;100.00
21431;BME280;10876;49.038;10.608;2023-05-20T01:27:12;99046.63;;;11.97;100.00
21431;BME280;10876;49.038;10.608;2023-05-20T01:29:40;99035.66;;;11.97;100.00
21431;BME280;10876;49.038;10.608;2023-05-20T01:32:10;99037.59;;;11.96;100.00
21431;BME280;10876;49.038;10.608;2023-05-20T01:34:38;99034.34;;;11.94;100.00
21431;BME280;10876;49.038;10.608;2023-05-20T01:37:07;99029.66;;;11.94;100.00
21431;BME280;10876;49.038;10.608;2023-05-20T01:39:35;99021.13;;;11.96;100.00
21431;BME280;10876;49.038;10.608;2023-05-20T01:42:06;99009.00;;;11.97;100.00
21431;BME280;10876;49.038;10.608;2023-05-20T01:44:33;98999.63;;;11.98;100.00
21431;BME280;10876;49.038;10.608;2023-05-20T01:47:00;98991.91;;;12.00;100.00
21431;BME280;10876;49.038;10.608;2023-05-20T01:49:27;98991.91;;;12.00;100.00
21431;BME280;10876;49.038;10.608;2023-05-20T01:51:54;98994.53;;;12.05;100.00
21431;BME280;10876;49.038;10.608;2023-05-20T01:54:21;98994.31;;;12.02;100.00
21431;BME280;10876;49.038;10.608;2023-05-20T01:56:48;99005.50;;;12.05;100.00
21431;BME280;10876;49.038;10.608;2023-05-20T01:59:17;99019.72;;;12.07;100.00
21431;BME280;10876;49.038;10.608;2023-05-20T02:01:43;99011.34;;;12.12;100.00
21431;BME280;10876;49.038;10.608;2023-05-20T02:04:10;99011.34;;;12.12;100.00
21431;BME280;10876;49.038;10.608;2023-05-20T02:06:37;99007.78;;;12.12;100.00
21431;BME280;10876;49.038;10.608;2023-05-20T02:09:04;99001.38;;;12.16;100.00
21431;BME280;10876;49.038;10.608;2023-05-20T02:11:30;99000.25;;;12.17;100.00
21431;BME280;10876;49.038;10.608;2023-05-20T02:13:57;98990.38;;;12.16;100.00
21431;BME280;10876;49.038;10.608;2023-05-20T02:16:25;98991.03;;;12.13;100.00
21431;BME280;10876;49.038;10.608;2023-05-20T02:18:52;98993.59;;;12.18;100.00
21431;BME280;10876;49.038;10.608;2023-05-20T02:21:18;98992.00;;;12.17;100.00
21431;BME280;10876;49.038;10.608;2023-05-20T02:23:45;98984.69;;;12.13;100.00
21431;BME280;10876;49.038;10.608;2023-05-20T02:26:12;98987.44;;;12.13;100.00
21431;BME280;10876;49.038;10.608;2023-05-20T02:28:38;98993.75;;;12.13;100.00
21431;BME280;10876;49.038;10.608;2023-05-20T02:31:10;98995.88;;;12.16;100.00
21431;BME280;10876;49.038;10.608;2023-05-20T02:33:38;98999.09;;;12.18;100.00
21431;BME280;10876;49.038;10.608;2023-05-20T02:36:06;99002.34;;;12.21;100.00
21431;BME280;10876;49.038;10.608;2023-05-20T02:38:32;98996.06;;;12.20;100.00
21431;BME280;10876;49.038;10.608;2023-05-20T02:40:59;98987.66;;;12.16;100.00
21431;BME280;10876;49.038;10.608;2023-05-20T02:43:26;98997.78;;;12.16;100.00
21431;BME280;10876;49.038;10.608;2023-05-20T02:45:52;98997.00;;;12.15;100.00
21431;BME280;10876;49.038;10.608;2023-05-20T02:48:19;98984.06;;;12.16;100.00
21431;BME280;10876;49.038;10.608;2023-05-20T02:50:47;98984.91;;;12.16;100.00
21431;BME280;10876;49.038;10.608;2023-05-20T02:53:14;98983.88;;;12.12;100.00
21431;BME280;10876;49.038;10.608;2023-05-20T02:55:40;98982.56;;;12.10;100.00
21431;BME280;10876;49.038;10.608;2023-05-20T02:58:09;98980.47;;;12.07;100.00
21431;BME280;10876;49.038;10.608;2023-05-20T03:00:37;98977.72;;;12.07;100.00
21431;BME280;10876;49.038;10.608;2023-05-20T03:03:05;98967.06;;;12.05;100.00
21431;BME280;10876;49.038;10.608;2023-05-20T03:05:32;98975.31;;;12.05;100.00
21431;BME280;10876;49.038;10.608;2023-05-20T03:08:05;98971.75;;;12.05;100.00
21431;BME280;10876;49.038;10.608;2023-05-20T03:10:33;98981.28;;;12.07;100.00
21431;BME280;10876;49.038;10.608;2023-05-20T03:13:00;98978.03;;;12.05;100.00
21431;BME280;10876;49.038;10.608;2023-05-20T03:15:27;98973.19;;;12.02;100.00
21431;BME280;10876;49.038;10.608;2023-05-20T03:17:54;98969.31;;;12.03;100.00
21431;BME280;10876;49.038;10.608;2023-05-20T03:20:20;98969.94;;;12.00;100.00
21431;BME280;10876;49.038;10.608;2023-05-20T03:22:48;98967.50;;;11.99;100.00
21431;BME280;10876;49.038;10.608;2023-05-20T03:25:16;98965.88;;;11.98;100.00
21431;BME280;10876;49.038;10.608;2023-05-20T03:27:43;98959.09;;;11.95;100.00
21431;BME280;10876;49.038;10.608;2023-05-20T03:30:11;98962.34;;;11.97;100.00
21431;BME280;10876;49.038;10.608;2023-05-20T03:32:38;98959.88;;;11.95;100.00
21431;BME280;10876;49.038;10.608;2023-05-20T03:35:06;98963.47;;;11.96;100.00
21431;BME280;10876;49.038;10.608;2023-05-20T03:37:33;98952.28;;;11.92;100.00
21431;BME280;10876;49.038;10.608;2023-05-20T03:39:59;98958.09;;;11.91;100.00
21431;BME280;10876;49.038;10.608;2023-05-20T03:42:27;99030.56;;;11.90;100.00
21431;BME280;10876;49.038;10.608;2023-05-20T03:44:54;99024.47;;;11.93;100.00
21431;BME280;10876;49.038;10.608;2023-05-20T03:47:21;99026.72;;;11.91;100.00
21431;BME280;10876;49.038;10.608;2023-05-20T03:49:48;99023.66;;;11.92;100.00
21431;BME280;10876;49.038;10.608;2023-05-20T03:52:14;99021.41;;;11.94;100.00
21431;BME280;10876;49.038;10.608;2023-05-20T03:54:41;99019.19;;;11.97;100.00
21431;BME280;10876;49.038;10.608;2023-05-20T03:57:08;99027.09;;;11.98;100.00
21431;BME280;10876;49.038;10.608;2023-05-20T03:59:36;99038.88;;;11.99;100.00
21431;BME280;10876;49.038;10.608;2023-05-20T04:02:04;99034.69;;;12.01;100.00
21431;BME280;10876;49.038;10.608;2023-05-20T04:04:31;99038.75;;;12.04;100.00
21431;BME280;10876;49.038;10.608;2023-05-20T04:06:58;99037.81;;;12.08;100.00
21431;BME280;10876;49.038;10.608;2023-05-20T04:09:25;99039.44;;;12.09;100.00
21431;BME280;10876;49.038;10.608;2023-05-20T04:11:51;99041.06;;;12.10;100.00
21431;BME280;10876;49.038;10.608;2023-05-20T04:14:18;99042.19;;;12.09;100.00
21431;BME280;10876;49.038;10.608;2023-05-20T04:16:46;99041.88;;;12.11;100.00
21431;BME280;10876;49.038;10.608;2023-05-20T04:19:14;99031.69;;;12.11;100.00
21431;BME280;10876;49.038;10.608;2023-05-20T04:21:44;99038.81;;;12.12;100.00
21431;BME280;10876;49.038;10.608;2023-05-20T04:24:11;99022.34;;;12.12;100.00
21431;BME280;10876;49.038;10.608;2023-05-20T04:26:37;99026.38;;;12.15;100.00
21431;BME280;10876;49.038;10.608;2023-05-20T04:29:04;99018.03;;;12.20;100.00
21431;BME280;10876;49.038;10.608;2023-05-20T04:31:31;99019.22;;;12.28;100.00
21431;BME280;10876;49.038;10.608;2023-05-20T04:33:59;99010.34;;;12.31;100.00
21431;BME280;10876;49.038;10.608;2023-05-20T04:36:27;99008.28;;;12.36;100.00
21431;BME280;10876;49.038;10.608;2023-05-20T04:38:53;99003.63;;;12.46;100.00
21431;BME280;10876;49.038;10.608;2023-05-20T04:41:20;99007.38;;;12.58;100.00
21431;BME280;10876;49.038;10.608;2023-05-20T04:43:47;99010.81;;;12.64;100.00
21431;BME280;10876;49.038;10.608;2023-05-20T04:46:14;99001.63;;;12.69;100.00
21431;BME280;10876;49.038;10.608;2023-05-20T04:48:41;99008.59;;;12.75;100.00
21431;BME280;10876;49.038;10.608;2023-05-20T04:51:09;99000.50;;;12.78;100.00
21431;BME280;10876;49.038;10.608;2023-05-20T04:53:36;99007.47;;;12.84;100.00
21431;BME280;10876;49.038;10.608;2023-05-20T04:56:04;99001.19;;;12.93;100.00
21431;BME280;10876;49.038;10.608;2023-05-20T04:58:31;98998.97;;;13.03;100.00
21431;BME280;10876;49.038;10.608;2023-05-20T05:00:57;98987.31;;;13.06;100.00
21431;BME280;10876;49.038;10.608;2023-05-20T05:03:25;98985.53;;;13.02;100.00
21431;BME280;10876;49.038;10.608;2023-05-20T05:05:54;98994.28;;;13.13;100.00
21431;BME280;10876;49.038;10.608;2023-05-20T05:08:23;98998.19;;;13.12;100.00
21431;BME280;10876;49.038;10.608;2023-05-20T05:10:50;99000.13;;;13.20;100.00
21431;BME280;10876;49.038;10.608;2023-05-20T05:13:16;98989.81;;;13.34;100.00
21431;BME280;10876;49.038;10.608;2023-05-20T05:15:43;98987.06;;;13.34;100.00
21431;BME280;10876;49.038;10.608;2023-05-20T05:18:10;98984.31;;;13.34;100.00
21431;BME280;10876;49.038;10.608;2023-05-20T05:20:36;98985.63;;;13.45;100.00
21431;BME280;10876;49.038;10.608;2023-05-20T05:23:03;98978.66;;;13.65;100.00
21431;BME280;10876;49.038;10.608;2023-05-20T05:25:31;98978.16;;;13.72;100.00
21431;BME280;10876;49.038;10.608;2023-05-20T05:27:58;98961.13;;;13.87;100.00
21431;BME280;10876;49.038;10.608;2023-05-20T05:30:25;98962.13;;;13.74;100.00
21431;BME280;10876;49.038;10.608;2023-05-20T05:32:52;98945.91;;;13.81;100.00
21431;BME280;10876;49.038;10.608;2023-05-20T05:35:19;98950.28;;;14.00;100.00
21431;BME280;10876;49.038;10.608;2023-05-20T05:37:45;98949.00;;;13.88;100.00
21431;BME280;10876;49.038;10.608;2023-05-20T05:40:12;98945.09;;;13.89;100.00
21431;BME280;10876;49.038;10.608;2023-05-20T05:42:40;98947.31;;;14.05;100.00
21431;BME280;10876;49.038;10.608;2023-05-20T05:45:08;98943.31;;;14.02;100.00
21431;BME280;10876;49.038;10.608;2023-05-20T05:53:57;98895.31;;;14.41;100.00
21431;BME280;10876;49.038;10.608;2023-05-20T05:56:25;98887.47;;;14.61;100.00
21431;BME280;10876;49.038;10.608;2023-05-20T05:58:54;98882.44;;;14.63;100.00
21431;BME280;10876;49.038;10.608;2023-05-20T06:01:21;98871.63;;;14.79;100.00
21431;BME280;10876;49.038;10.608;2023-05-20T06:03:48;98867.47;;;14.94;100.00
21431;BME280;10876;49.038;10.608;2023-05-20T06:06:23;98884.13;;;14.76;100.00
21431;BME280;10876;49.038;10.608;2023-05-20T06:08:50;98888.50;;;14.77;100.00
21431;BME280;10876;49.038;10.608;2023-05-20T06:11:17;98888.97;;;15.21;100.00
21431;BME280;10876;49.038;10.608;2023-05-20T06:13:49;98899.03;;;15.59;100.00
21431;BME280;10876;49.038;10.608;2023-05-20T06:16:19;98890.31;;;15.36;100.00
21431;BME280;10876;49.038;10.608;2023-05-20T06:18:48;98902.94;;;15.58;100.00
21431;BME280;10876;49.038;10.608;2023-05-20T06:21:22;98891.13;;;16.03;100.00
21431;BME280;10876;49.038;10.608;2023-05-20T06:23:49;98890.69;;;16.13;100.00
21431;BME280;10876;49.038;10.608;2023-05-20T06:26:16;98908.53;;;16.04;100.00
21431;BME280;10876;49.038;10.608;2023-05-20T06:28:43;98898.31;;;16.41;100.00
21431;BME280;10876;49.038;10.608;2023-05-20T06:31:13;98911.22;;;16.37;100.00
21431;BME280;10876;49.038;10.608;2023-05-20T06:33:45;98927.34;;;16.59;100.00
21431;BME280;10876;49.038;10.608;2023-05-20T06:36:14;98935.19;;;16.70;100.00
21431;BME280;10876;49.038;10.608;2023-05-20T06:38:41;98933.69;;;16.72;100.00
21431;BME280;10876;49.038;10.608;2023-05-20T06:41:08;98952.69;;;16.74;100.00
21431;BME280;10876;49.038;10.608;2023-05-20T06:43:38;98950.88;;;16.90;100.00
21431;BME280;10876;49.038;10.608;2023-05-20T06:46:06;98955.25;;;16.66;100.00
21431;BME280;10876;49.038;10.608;2023-05-20T06:48:33;98959.53;;;16.88;100.00
21431;BME280;10876;49.038;10.608;2023-05-20T06:51:06;98965.84;;;17.14;100.00
21431;BME280;10876;49.038;10.608;2023-05-20T06:53:36;98969.75;;;17.25;100.00
21431;BME280;10876;49.038;10.608;2023-05-20T06:56:07;98972.00;;;17.47;100.00
21431;BME280;10876;49.038;10.608;2023-05-20T06:58:34;98964.19;;;17.65;100.00
21431;BME280;10876;49.038;10.608;2023-05-20T07:01:01;98960.88;;;17.60;100.00
21431;BME280;10876;49.038;10.608;2023-05-20T07:03:29;98954.84;;;17.70;100.00
21431;BME280;10876;49.038;10.608;2023-05-20T07:05:56;98968.34;;;17.99;100.00
21431;BME280;10876;49.038;10.608;2023-05-20T07:08:25;98958.66;;;18.06;100.00
21431;BME280;10876;49.038;10.608;2023-05-20T07:10:54;98948.13;;;17.83;100.00
21431;BME280;10876;49.038;10.608;2023-05-20T07:13:21;98939.53;;;17.88;100.00
21431;BME280;10876;49.038;10.608;2023-05-20T07:15:53;98940.34;;;17.61;100.00
21431;BME280;10876;49.038;10.608;2023-05-20T07:18:21;98927.47;;;17.68;100.00
21431;BME280;10876;49.038;10.608;2023-05-20T07:20:49;98927.22;;;18.01;100.00
21431;BME280;10876;49.038;10.608;2023-05-20T07:23:19;98921.22;;;17.99;100.00
21431;BME280;10876;49.038;10.608;2023-05-20T07:25:51;98920.47;;;18.15;100.00
21431;BME280;10876;49.038;10.608;2023-05-20T07:28:24;98915.06;;;17.90;100.00
21431;BME280;10876;49.038;10.608;2023-05-20T07:30:51;98909.88;;;18.05;100.00
21431;BME280;10876;49.038;10.608;2023-05-20T07:33:19;98920.84;;;17.85;100.00
21431;BME280;10876;49.038;10.608;2023-05-20T07:35:49;98902.47;;;18.09;100.00
21431;BME280;10876;49.038;10.608;2023-05-20T07:38:21;98901.41;;;18.45;100.00
21431;BME280;10876;49.038;10.608;2023-05-20T07:40:54;98888.75;;;18.79;100.00
21431;BME280;10876;49.038;10.608;2023-05-20T07:43:24;98886.28;;;18.11;100.00
21431;BME280;10876;49.038;10.608;2023-05-20T07:45:51;98898.38;;;18.34;100.00
21431;BME280;10876;49.038;10.608;2023-05-20T07:48:18;98879.94;;;18.42;100.00
21431;BME280;10876;49.038;10.608;2023-05-20T07:50:45;98870.22;;;18.67;100.00
21431;BME280;10876;49.038;10.608;2023-05-20T07:53:12;98873.44;;;18.69;100.00
21431;BME280;10876;49.038;10.608;2023-05-20T07:55:39;98862.03;;;19.26;100.00
21431;BME280;10876;49.038;10.608;2023-05-20T07:58:08;98856.03;;;18.88;100.00
21431;BME280;10876;49.038;10.608;2023-05-20T08:00:35;98846.16;;;18.56;100.00
21431;BME280;10876;49.038;10.608;2023-05-20T08:03:02;98837.94;;;19.14;100.00
21431;BME280;10876;49.038;10.608;2023-05-20T08:05:29;98839.25;;;19.40;100.00
21431;BME280;10876;49.038;10.608;2023-05-20T08:07:56;98828.91;;;19.79;100.00
21431;BME280;10876;49.038;10.608;2023-05-20T08:10:24;98832.16;;;19.42;100.00
21431;BME280;10876;49.038;10.608;2023-05-20T08:12:51;98818.34;;;19.46;100.00
21431;BME280;10876;49.038;10.608;2023-05-20T08:15:19;98829.31;;;19.77;100.00
21431;BME280;10876;49.038;10.608;2023-05-20T08:17:47;98826.94;;;19.60;100.00
21431;BME280;10876;49.038;10.608;2023-05-20T08:20:14;98815.75;;;19.56;100.00
21431;BME280;10876;49.038;10.608;2023-05-20T08:22:41;98819.03;;;20.54;100.00
21431;BME280;10876;49.038;10.608;2023-05-20T08:25:08;98800.34;;;20.05;100.00
21431;BME280;10876;49.038;10.608;2023-05-20T08:27:36;98814.97;;;19.75;100.00
21431;BME280;10876;49.038;10.608;2023-05-20T08:30:04;98810.31;;;20.06;100.00
21431;BME280;10876;49.038;10.608;2023-05-20T08:32:34;98806.59;;;20.21;100.00
21431;BME280;10876;49.038;10.608;2023-05-20T08:35:01;98812.03;;;20.14;100.00
21431;BME280;10876;49.038;10.608;2023-05-20T08:37:28;98804.19;;;19.74;100.00
21431;BME280;10876;49.038;10.608;2023-05-20T08:39:55;98807.63;;;20.36;100.00
21431;BME280;10876;49.038;10.608;2023-05-20T08:42:23;98807.44;;;20.25;100.00
21431;BME280;10876;49.038;10.608;2023-05-20T08:44:51;98792.75;;;20.02;100.00
21431;BME280;10876;49.038;10.608;2023-05-20T08:47:19;98797.97;;;20.53;100.00
21431;BME280;10876;49.038;10.608;2023-05-20T08:49:49;98794.06;;;20.88;100.00
21431;BME280;10876;49.038;10.608;2023-05-20T08:52:17;98798.03;;;20.87;100.00
21431;BME280;10876;49.038;10.608;2023-05-20T08:54:48;98802.00;;;20.33;100.00
21431;BME280;10876;49.038;10.608;2023-05-20T08:57:16;98804.53;;;20.98;100.00
21431;BME280;10876;49.038;10.608;2023-05-20T08:59:45;98793.31;;;20.61;100.00
21431;BME280;10876;49.038;10.608;2023-05-20T09:02:12;98796.53;;;21.61;100.00
21431;BME280;10876;49.038;10.608;2023-05-20T09:04:40;98782.06;;;21.92;100.00
21431;BME280;10876;49.038;10.608;2023-05-20T09:07:08;98789.19;;;21.45;100.00
21431;BME280;10876;49.038;10.608;2023-05-20T09:09:35;98773.22;;;21.42;100.00
21431;BME280;10876;49.038;10.608;2023-05-20T09:12:03;98769.22;;;21.80;100.00
21431;BME280;10876;49.038;10.608;2023-05-20T09:14:30;98789.19;;;21.45;100.00
21431;BME280;10876;49.038;10.608;2023-05-20T09:16:57;98773.38;;;21.56;100.00
21431;BME280;10876;49.038;10.608;2023-05-20T09:19:24;98772.34;;;20.70;100.00
21431;BME280;10876;49.038;10.608;2023-05-20T09:21:52;98768.03;;;20.77;100.00
21431;BME280;10876;49.038;10.608;2023-05-20T09:24:24;98781.38;;;20.94;100.00
21431;BME280;10876;49.038;10.608;2023-05-20T09:26:51;98769.06;;;21.29;100.00
21431;BME280;10876;49.038;10.608;2023-05-20T09:29:18;98777.69;;;21.17;100.00
21431;BME280;10876;49.038;10.608;2023-05-20T09:31:46;98784.16;;;21.24;100.00
21431;BME280;10876;49.038;10.608;2023-05-20T09:34:15;98753.41;;;21.95;100.00
21431;BME280;10876;49.038;10.608;2023-05-20T09:36:43;98755.91;;;22.11;100.00
21431;BME280;10876;49.038;10.608;2023-05-20T09:39:13;98748.28;;;21.23;100.00
21431;BME280;10876;49.038;10.608;2023-05-20T09:41:53;98752.66;;;21.57;100.00
21431;BME280;10876;49.038;10.608;2023-05-20T09:44:21;98742.69;;;21.19;100.00
21431;BME280;10876;49.038;10.608;2023-05-20T09:46:49;98747.50;;;21.22;100.00
21431;BME280;10876;49.038;10.608;2023-05-20T09:49:18;98746.25;;;21.53;100.00
21431;BME280;10876;49.038;10.608;2023-05-20T09:51:48;98756.22;;;21.54;100.00
21431;BME280;10876;49.038;10.608;2023-05-20T09:54:17;98742.91;;;21.37;100.00
21431;BME280;10876;49.038;10.608;2023-05-20T09:56:47;98754.91;;;21.07;100.00
21431;BME280;10876;49.038;10.608;2023-05-20T09:59:15;98751.09;;;21.23;100.00
21431;BME280;10876;49.038;10.608;2023-05-20T10:01:43;98745.25;;;20.67;100.00
21431;BME280;10876;49.038;10.608;2023-05-20T10:04:12;98746.69;;;21.55;100.00
21431;BME280;10876;49.038;10.608;2023-05-20T10:06:53;98738.00;;;22.16;100.00
21431;BME280;10876;49.038;10.608;2023-05-20T10:09:36;98743.94;;;21.63;100.00
21431;BME280;10876;49.038;10.608;2023-05-20T10:12:17;98735.75;;;22.32;100.00
21431;BME280;10876;49.038;10.608;2023-05-20T10:14:58;98714.88;;;22.88;100.00
21431;BME280;10876;49.038;10.608;2023-05-20T10:17:38;98717.34;;;23.01;100.00
21431;BME280;10876;49.038;10.608;2023-05-20T10:20:08;98693.03;;;23.26;100.00
21431;BME280;10876;49.038;10.608;2023-05-20T10:22:37;98692.63;;;22.22;100.00
21431;BME280;10876;49.038;10.608;2023-05-20T10:25:11;98704.72;;;22.44;100.00
21431;BME280;10876;49.038;10.608;2023-05-20T10:27:50;98698.94;;;22.16;100.00
21431;BME280;10876;49.038;10.608;2023-05-20T10:30:18;98704.41;;;21.12;100.00
21431;BME280;10876;49.038;10.608;2023-05-20T10:32:52;98720.06;;;20.87;100.00
21431;BME280;10876;49.038;10.608;2023-05-20T10:35:21;98718.72;;;21.11;100.00
21431;BME280;10876;49.038;10.608;2023-05-20T10:37:51;98713.16;;;21.11;100.00
21431;BME280;10876;49.038;10.608;2023-05-20T10:40:19;98714.38;;;20.80;100.00
21431;BME280;10876;49.038;10.608;2023-05-20T10:42:47;98723.59;;;21.18;100.00
21431;BME280;10876;49.038;10.608;2023-05-20T10:45:26;98719.50;;;21.11;100.00
21431;BME280;10876;49.038;10.608;2023-05-20T10:47:57;98715.94;;;21.48;100.00
21431;BME280;10876;49.038;10.608;2023-05-20T10:50:32;98712.38;;;21.99;100.00
21431;BME280;10876;49.038;10.608;2023-05-20T10:53:03;98695.72;;;22.14;100.00
21431;BME280;10876;49.038;10.608;2023-05-20T10:55:35;98684.47;;;21.96;100.00
21431;BME280;10876;49.038;10.608;2023-05-20T10:58:03;98686.56;;;22.10;100.00
21431;BME280;10876;49.038;10.608;2023-05-20T11:00:33;98683.06;;;22.23;100.00
21431;BME280;10876;49.038;10.608;2023-05-20T11:03:01;98677.66;;;22.56;100.00
21431;BME280;10876;49.038;10.608;2023-05-20T11:05:29;98680.69;;;22.25;100.00
21431;BME280;10876;49.038;10.608;2023-05-20T11:08:00;98666.25;;;22.16;100.00
21431;BME280;10876;49.038;10.608;2023-05-20T11:10:28;98676.50;;;21.98;100.00
21431;BME280;10876;49.038;10.608;2023-05-20T11:13:04;98673.97;;;22.37;100.00
21431;BME280;10876;49.038;10.608;2023-05-20T11:15:34;98664.41;;;22.42;100.00
21431;BME280;10876;49.038;10.608;2023-05-20T11:18:03;98671.72;;;22.68;100.00
21431;BME280;10876;49.038;10.608;2023-05-20T11:20:30;98660.16;;;22.80;100.00
21431;BME280;10876;49.038;10.608;2023-05-20T11:23:00;98666.22;;;22.13;100.00
21431;BME280;10876;49.038;10.608;2023-05-20T11:25:28;98656.84;;;22.42;100.00
21431;BME280;10876;49.038;10.608;2023-05-20T11:27:55;98662.13;;;21.92;100.00
21431;BME280;10876;49.038;10.608;2023-05-20T11:30:25;98661.03;;;22.08;100.00
21431;BME280;10876;49.038;10.608;2023-05-20T11:32:58;98646.38;;;22.18;100.00
21431;BME280;10876;49.038;10.608;2023-05-20T11:35:26;98644.75;;;21.58;100.00
21431;BME280;10876;49.038;10.608;2023-05-20T11:37:56;98657.25;;;21.78;100.00
21431;BME280;10876;49.038;10.608;2023-05-20T11:40:24;98651.34;;;21.39;100.00
21431;BME280;10876;49.038;10.608;2023-05-20T11:42:53;98646.53;;;21.36;100.00
21431;BME280;10876;49.038;10.608;2023-05-20T11:45:21;98654.59;;;21.45;100.00
21431;BME280;10876;49.038;10.608;2023-05-20T11:50:52;98626.44;;;22.23;100.00
21431;BME280;10876;49.038;10.608;2023-05-20T11:53:20;98632.00;;;22.19;100.00
21431;BME280;10876;49.038;10.608;2023-05-20T11:55:52;98632.81;;;22.20;100.00
21431;BME280;10876;49.038;10.608;2023-05-20T11:58:21;98633.81;;;22.67;100.00
21431;BME280;10876;49.038;10.608;2023-05-20T12:00:48;98621.66;;;22.20;100.00
21431;BME280;10876;49.038;10.608;2023-05-20T12:03:16;98627.72;;;22.36;100.00
21431;BME280;10876;49.038;10.608;2023-05-20T12:05:43;98625.72;;;22.37;100.00
21431;BME280;10876;49.038;10.608;2023-05-20T12:08:13;98616.72;;;21.99;100.00
21431;BME280;10876;49.038;10.608;2023-05-20T12:10:40;98616.19;;;21.75;100.00
21431;BME280;10876;49.038;10.608;2023-05-20T12:13:09;98620.56;;;21.73;100.00
21431;BME280;10876;49.038;10.608;2023-05-20T12:15:40;98629.34;;;21.75;100.00
21431;BME280;10876;49.038;10.608;2023-05-20T12:18:07;98625.44;;;21.87;100.00
21431;BME280;10876;49.038;10.608;2023-05-20T12:20:34;98622.22;;;21.81;100.00
21431;BME280;10876;49.038;10.608;2023-05-20T12:23:01;98621.28;;;22.25;100.00
21431;BME280;10876;49.038;10.608;2023-05-20T12:25:30;98618.22;;;22.62;100.00
21431;BME280;10876;49.038;10.608;2023-05-20T12:27:58;98615.84;;;22.61;100.00
21431;BME280;10876;49.038;10.608;2023-05-20T12:30:25;98605.81;;;22.45;100.00
21431;BME280;10876;49.038;10.608;2023-05-20T12:32:52;98609.13;;;22.90;100.00
21431;BME280;10876;49.038;10.608;2023-05-20T12:35:23;98617.88;;;22.78;100.00
21431;BME280;10876;49.038;10.608;2023-05-20T12:37:51;98610.59;;;22.38;100.00
21431;BME280;10876;49.038;10.608;2023-05-20T12:40:18;98617.22;;;22.15;100.00
21431;BME280;10876;49.038;10.608;2023-05-20T12:42:46;98626.69;;;22.00;100.00
21431;BME280;10876;49.038;10.608;2023-05-20T12:45:13;98616.63;;;21.81;100.00
21431;BME280;10876;49.038;10.608;2023-05-20T12:47:40;98617.69;;;21.66;100.00
21431;BME280;10876;49.038;10.608;2023-05-20T12:50:08;98623.00;;;21.78;100.00
21431;BME280;10876;49.038;10.608;2023-05-20T12:52:35;98629.25;;;21.61;100.00
21431;BME280;10876;49.038;10.608;2023-05-20T12:55:02;98633.25;;;21.67;100.00
21431;BME280;10876;49.038;10.608;2023-05-20T12:57:38;98627.63;;;21.59;100.00
21431;BME280;10876;49.038;10.608;2023-05-20T13:00:08;98624.03;;;21.59;100.00
21431;BME280;10876;49.038;10.608;2023-05-20T13:02:35;98614.81;;;21.51;100.00
21431;BME280;10876;49.038;10.608;2023-05-20T13:05:02;98626.81;;;21.55;100.00
21431;BME280;10876;49.038;10.608;2023-05-20T13:07:50;98641.88;;;21.47;100.00
21431;BME280;10876;49.038;10.608;2023-05-20T13:10:17;98648.16;;;21.37;100.00
21431;BME280;10876;49.038;10.608;2023-05-20T13:12:47;98640.22;;;21.43;100.00
21431;BME280;10876;49.038;10.608;2023-05-20T13:15:16;98653.72;;;21.37;100.00
21431;BME280;10876;49.038;10.608;2023-05-20T13:17:43;98642.75;;;21.55;100.00
21431;BME280;10876;49.038;10.608;2023-05-20T13:20:11;98642.94;;;21.84;100.00
21431;BME280;10876;49.038;10.608;2023-05-20T13:22:38;98633.56;;;22.17;100.00
21431;BME280;10876;49.038;10.608;2023-05-20T13:25:06;98624.22;;;22.61;100.00
21431;BME280;10876;49.038;10.608;2023-05-20T13:27:33;98625.16;;;23.01;100.00
21431;BME280;10876;49.038;10.608;2023-05-20T13:30:00;98621.97;;;23.16;100.00
21431;BME280;10876;49.038;10.608;2023-05-20T13:32:29;98607.59;;;23.18;100.00